Time;durP1;ratioP1;P1;durP2;ratioP2;P2;SDS_P1;SDS_P2;PMS_P1;PMS_P2;Temp;Humidity;BMP_temperature;BMP_pressure;BME280_temperature;BME280_humidity;BME280_pressure;Samples;Min_cycle;Max_cycle;Signal;HPM_P1;HPM_P2
2022/01/20 00:04:35;;;;;;;2.75;2.45;;;4.70;93.60;;;;;;9824679;29;20526;-60
2022/01/20 00:35:31;;;;;;;3.83;2.50;;;4.60;94.00;;;;;;9825607;29;20117;-59
2022/01/20 00:40:23;;;;;;;5.00;2.38;;;4.60;94.10;;;;;;9823051;29;20480;-60
2022/01/20 00:45:15;;;;;;;5.13;2.50;;;4.70;94.00;;;;;;9813357;29;20028;-60
2022/01/20 00:50:08;;;;;;;6.15;2.92;;;4.50;94.00;;;;;;9826588;29;20107;-59
2022/01/20 00:54:58;;;;;;;4.75;2.65;;;4.60;94.10;;;;;;9826228;29;20448;-60
2022/01/20 00:59:49;;;;;;;6.30;2.33;;;4.50;94.50;;;;;;9819555;29;20088;-61
2022/01/20 01:04:40;;;;;;;3.78;2.08;;;4.50;94.20;;;;;;9821004;29;20032;-60
2022/01/20 01:09:31;;;;;;;3.10;2.30;;;4.40;94.30;;;;;;9826112;29;20032;-61
2022/01/20 01:14:23;;;;;;;6.60;3.15;;;4.40;94.40;;;;;;9820825;29;20645;-59
2022/01/20 01:24:25;;;;;;;4.63;2.38;;;4.40;94.40;;;;;;9824424;29;20506;-61
2022/01/20 01:29:37;;;;;;;4.68;2.20;;;4.40;94.40;;;;;;9818174;29;20031;-59
2022/01/20 01:34:30;;;;;;;3.97;2.47;;;4.40;94.50;;;;;;9820468;29;20177;-61
2022/01/20 01:39:20;;;;;;;6.47;2.97;;;4.50;94.60;;;;;;9818668;29;20515;-61
2022/01/20 01:44:19;;;;;;;4.93;2.72;;;4.40;94.50;;;;;;9820060;29;20032;-60
2022/01/20 01:49:09;;;;;;;7.75;2.63;;;4.40;94.60;;;;;;9821057;29;20031;-60
2022/01/20 01:54:00;;;;;;;4.93;2.65;;;4.50;94.70;;;;;;9817023;29;20044;-62
2022/01/20 01:58:51;;;;;;;4.53;2.22;;;4.50;94.60;;;;;;9822080;29;20044;-59
2022/01/20 02:03:45;;;;;;;5.22;2.67;;;4.40;94.80;;;;;;9818225;29;20028;-60
2022/01/20 02:08:51;;;;;;;4.28;2.65;;;4.50;94.80;;;;;;9821937;29;20051;-60
2022/01/20 02:18:53;;;;;;;6.47;2.45;;;4.50;94.90;;;;;;9817031;29;20464;-59
2022/01/20 02:23:45;;;;;;;4.47;2.33;;;4.40;95.00;;;;;;9819813;29;20087;-61
2022/01/20 02:28:36;;;;;;;3.53;2.10;;;4.40;95.10;;;;;;9815790;29;20027;-60
2022/01/20 02:33:29;;;;;;;3.25;2.17;;;4.40;95.10;;;;;;9818209;29;20044;-58
2022/01/20 02:48:33;;;;;;;6.07;3.20;;;4.30;95.10;;;;;;9814266;29;20111;-60
2022/01/20 02:53:24;;;;;;;8.88;3.42;;;4.40;95.10;;;;;;9817485;29;20055;-59
2022/01/20 02:58:14;;;;;;;6.32;3.25;;;4.30;95.30;;;;;;9832963;29;20048;-60
2022/01/20 03:03:05;;;;;;;4.55;2.30;;;4.40;95.20;;;;;;9821471;29;20039;-60
2022/01/20 03:07:56;;;;;;;4.15;2.38;;;4.40;95.30;;;;;;9823417;29;20390;-59
2022/01/20 03:12:46;;;;;;;5.82;2.90;;;4.40;95.30;;;;;;9816897;29;20338;-59
2022/01/20 03:17:37;;;;;;;6.38;2.72;;;4.30;95.30;;;;;;9822623;29;20103;-59
2022/01/20 03:22:28;;;;;;;6.75;3.45;;;4.40;95.40;;;;;;9818006;29;20040;-59
2022/01/20 03:27:18;;;;;;;6.50;3.20;;;4.40;95.40;;;;;;9818407;29;20479;-59
2022/01/20 03:32:09;;;;;;;5.60;2.88;;;4.40;95.40;;;;;;9819661;29;20590;-58
2022/01/20 03:37:03;;;;;;;5.55;3.25;;;4.50;95.40;;;;;;9822752;29;20194;-59
2022/01/20 03:41:54;;;;;;;6.22;2.83;;;4.40;95.60;;;;;;9816762;29;20219;-59
2022/01/20 03:46:44;;;;;;;7.55;3.13;;;4.40;95.60;;;;;;9818604;29;20116;-59
2022/01/20 03:51:36;;;;;;;6.15;2.78;;;4.50;95.60;;;;;;9818977;29;20466;-59
2022/01/20 03:56:26;;;;;;;6.50;2.50;;;4.50;95.50;;;;;;9816930;29;20488;-59
2022/01/20 04:01:18;;;;;;;5.75;2.85;;;4.40;95.60;;;;;;9819317;29;20040;-60
2022/01/20 04:06:09;;;;;;;6.13;3.13;;;4.50;95.60;;;;;;9819835;29;20075;-60
2022/01/20 04:11:13;;;;;;;6.78;3.10;;;4.50;95.60;;;;;;9820402;29;20075;-61
2022/01/20 04:16:13;;;;;;;7.47;3.55;;;4.50;95.60;;;;;;9819298;29;20055;-63
2022/01/20 04:21:04;;;;;;;7.18;3.28;;;4.40;95.80;;;;;;9820865;29;20028;-60
2022/01/20 04:25:54;;;;;;;6.68;3.15;;;4.40;95.70;;;;;;9829396;29;20103;-59
2022/01/20 04:30:45;;;;;;;5.38;2.80;;;4.40;95.70;;;;;;9824082;29;20040;-59
2022/01/20 04:35:36;;;;;;;7.78;3.47;;;4.40;95.80;;;;;;9824445;29;20028;-59
2022/01/20 04:40:27;;;;;;;5.00;2.47;;;4.50;95.80;;;;;;9818324;29;20408;-61
2022/01/20 04:45:25;;;;;;;7.07;3.58;;;4.50;95.70;;;;;;9821581;29;20032;-61
2022/01/20 05:00:34;;;;;;;6.70;3.33;;;4.50;95.80;;;;;;9821522;29;20056;-60
2022/01/20 05:05:26;;;;;;;3.47;2.97;;;4.50;95.90;;;;;;9823231;29;20096;-59
2022/01/20 05:10:16;;;;;;;5.07;2.67;;;4.50;95.90;;;;;;9822480;29;20343;-59
2022/01/20 05:15:08;;;;;;;4.72;2.60;;;4.50;96.00;;;;;;9820081;29;20032;-60
2022/01/20 05:19:58;;;;;;;6.45;3.22;;;4.50;95.90;;;;;;9821073;29;20104;-59
2022/01/20 05:24:49;;;;;;;4.45;2.92;;;4.50;95.90;;;;;;9822702;29;20082;-59
2022/01/20 05:29:40;;;;;;;4.22;2.60;;;4.60;95.90;;;;;;9822585;29;20498;-60
2022/01/20 05:34:32;;;;;;;5.00;2.55;;;4.60;95.90;;;;;;9818875;29;20050;-60
2022/01/20 05:39:24;;;;;;;4.28;3.00;;;4.60;95.90;;;;;;9822327;29;20355;-58
2022/01/20 05:44:15;;;;;;;5.95;3.38;;;4.50;96.00;;;;;;9821185;29;20119;-59
2022/01/20 05:49:09;;;;;;;5.65;2.55;;;4.50;96.10;;;;;;9817173;29;20103;-59
2022/01/20 05:54:00;;;;;;;6.20;2.78;;;4.50;96.10;;;;;;9818736;29;20054;-59
2022/01/20 05:58:51;;;;;;;3.85;2.17;;;4.50;96.00;;;;;;9821287;29;20040;-68
2022/01/20 06:03:42;;;;;;;4.53;2.75;;;4.50;96.10;;;;;;9813015;29;20043;-61
2022/01/20 06:08:34;;;;;;;4.47;2.42;;;4.60;96.00;;;;;;9822588;29;20040;-60
2022/01/20 06:13:26;;;;;;;4.45;2.35;;;4.50;96.00;;;;;;9818358;29;20055;-58
2022/01/20 06:18:17;;;;;;;4.05;2.50;;;4.50;96.10;;;;;;9826299;29;20654;-59
2022/01/20 06:23:09;;;;;;;5.47;3.38;;;4.50;96.10;;;;;;9822239;29;20116;-59
2022/01/20 06:28:00;;;;;;;4.47;2.53;;;4.50;96.10;;;;;;9819685;29;20036;-59
2022/01/20 06:32:53;;;;;;;6.50;2.45;;;4.50;96.20;;;;;;9821515;29;20371;-59
2022/01/20 06:37:44;;;;;;;4.80;2.72;;;4.50;96.10;;;;;;9820400;29;20028;-59
2022/01/20 06:42:36;;;;;;;5.00;2.25;;;4.50;96.00;;;;;;9823664;29;20020;-59
2022/01/20 06:47:26;;;;;;;4.50;2.90;;;4.40;96.10;;;;;;9820396;29;20033;-60
2022/01/20 06:52:17;;;;;;;4.85;2.53;;;4.40;95.90;;;;;;9820002;29;20040;-62
2022/01/20 06:57:08;;;;;;;4.80;2.30;;;4.30;95.90;;;;;;9820840;29;20046;-60
2022/01/20 07:01:58;;;;;;;4.00;2.33;;;4.20;96.00;;;;;;9817276;29;20083;-59
2022/01/20 07:06:49;;;;;;;7.53;2.97;;;4.10;96.00;;;;;;9818129;29;20427;-60
2022/01/20 07:11:40;;;;;;;5.63;2.47;;;4.10;96.00;;;;;;9813187;29;20060;-60
2022/01/20 07:16:31;;;;;;;5.38;2.38;;;4.20;96.10;;;;;;9816051;29;20028;-66
2022/01/20 07:21:22;;;;;;;4.47;2.35;;;4.20;96.20;;;;;;9822160;29;20067;-70
2022/01/20 07:26:13;;;;;;;2.90;2.15;;;4.10;96.00;;;;;;9825306;29;20036;-68
2022/01/20 07:31:03;;;;;;;5.15;2.78;;;4.10;96.00;;;;;;9814988;29;20091;-63
2022/01/20 07:35:54;;;;;;;5.07;2.80;;;4.00;96.10;;;;;;9816057;29;20023;-62
2022/01/20 07:40:45;;;;;;;4.38;2.25;;;4.00;96.10;;;;;;9799651;29;20132;-60
2022/01/20 07:45:37;;;;;;;6.03;3.03;;;4.00;96.20;;;;;;9794458;29;20670;-58
2022/01/20 07:50:27;;;;;;;7.30;2.88;;;3.90;96.20;;;;;;9815067;29;20115;-59
2022/01/20 07:55:18;;;;;;;4.80;2.38;;;3.90;96.30;;;;;;9823932;29;20139;-59
2022/01/20 08:00:10;;;;;;;5.65;2.80;;;4.00;96.40;;;;;;9823010;29;20028;-60
2022/01/20 08:05:00;;;;;;;5.63;2.67;;;4.30;96.20;;;;;;9825475;29;20940;-60
2022/01/20 08:09:57;;;;;;;4.43;2.58;;;4.40;96.30;;;;;;9821951;29;20024;-61
2022/01/20 08:14:48;;;;;;;5.95;2.75;;;4.50;96.40;;;;;;9822296;29;20059;-60
2022/01/20 08:19:38;;;;;;;8.85;2.42;;;4.50;96.30;;;;;;9822695;29;20039;-64
2022/01/20 08:24:29;;;;;;;5.32;1.85;;;4.50;96.40;;;;;;9823424;29;20411;-60
2022/01/20 08:29:20;;;;;;;8.25;2.92;;;4.60;96.40;;;;;;9824218;29;20521;-62
2022/01/20 08:34:10;;;;;;;5.13;2.83;;;4.70;96.30;;;;;;9828219;29;20112;-62
2022/01/20 08:39:02;;;;;;;4.30;2.65;;;4.90;96.30;;;;;;9821050;29;20028;-64
2022/01/20 08:43:53;;;;;;;6.90;3.13;;;5.00;96.20;;;;;;9821637;29;20042;-59
2022/01/20 08:48:43;;;;;;;5.85;3.40;;;5.00;96.20;;;;;;9818961;29;20352;-60
2022/01/20 08:53:34;;;;;;;7.93;4.72;;;5.00;96.40;;;;;;9822685;29;20111;-59
2022/01/20 08:58:25;;;;;;;7.35;3.45;;;5.00;96.30;;;;;;9818510;29;20110;-58
2022/01/20 09:03:16;;;;;;;8.55;3.20;;;5.10;96.40;;;;;;9820486;29;20119;-58
2022/01/20 09:08:08;;;;;;;7.40;2.97;;;5.20;96.30;;;;;;9827375;29;20477;-58
2022/01/20 09:18:09;;;;;;;5.82;3.40;;;5.30;96.40;;;;;;9816918;29;20051;-58
2022/01/20 09:23:01;;;;;;;7.00;3.25;;;5.40;96.40;;;;;;9818344;29;20478;-62
2022/01/20 09:27:55;;;;;;;6.22;3.35;;;5.30;96.40;;;;;;9820855;29;20071;-61
2022/01/20 09:32:59;;;;;;;5.22;3.67;;;5.50;96.40;;;;;;9818074;29;20036;-61
2022/01/20 09:37:49;;;;;;;8.05;3.00;;;5.50;96.40;;;;;;9818426;29;20036;-66
2022/01/20 09:42:41;;;;;;;8.00;4.13;;;5.50;96.50;;;;;;9801043;29;20096;-61
2022/01/20 09:47:31;;;;;;;6.65;2.78;;;5.60;96.40;;;;;;9818014;29;20095;-62
2022/01/20 09:52:24;;;;;;;9.23;3.88;;;5.60;96.30;;;;;;9820037;29;20040;-62
2022/01/20 09:57:14;;;;;;;6.15;3.85;;;5.60;96.40;;;;;;9840324;29;20040;-66
2022/01/20 10:02:09;;;;;;;8.55;2.72;;;5.70;96.30;;;;;;9821549;29;20179;-61
2022/01/20 10:07:04;;;;;;;6.22;3.47;;;5.70;96.30;;;;;;9818851;29;20370;-61
2022/01/20 10:11:55;;;;;;;6.75;3.83;;;5.80;96.20;;;;;;9812898;29;20044;-59
2022/01/20 10:16:46;;;;;;;6.22;4.10;;;5.90;96.10;;;;;;9818979;29;20419;-71
2022/01/20 10:21:38;;;;;;;6.53;3.88;;;5.90;96.10;;;;;;9815850;29;20103;-61
2022/01/20 10:26:29;;;;;;;9.18;4.35;;;6.00;96.20;;;;;;9816915;29;20024;-61
2022/01/20 10:31:31;;;;;;;9.52;4.95;;;6.10;96.10;;;;;;9816794;29;20063;-61
2022/01/20 10:36:22;;;;;;;9.63;5.30;;;6.00;96.10;;;;;;9816848;29;20597;-62
2022/01/20 10:41:13;;;;;;;7.65;3.67;;;6.00;96.00;;;;;;9817261;29;20032;-61
2022/01/20 10:46:10;;;;;;;7.00;3.03;;;6.00;96.00;;;;;;9815632;29;20499;-61
2022/01/20 10:51:01;;;;;;;5.32;2.53;;;6.00;96.00;;;;;;9818211;29;20063;-62
2022/01/20 10:56:05;;;;;;;8.13;3.03;;;6.00;96.00;;;;;;9817083;29;20177;-61
2022/01/20 11:00:57;;;;;;;8.73;3.22;;;6.20;95.90;;;;;;9812226;29;20046;-60
2022/01/20 11:05:51;;;;;;;5.93;2.83;;;6.10;95.70;;;;;;9814687;29;20040;-61
2022/01/20 11:10:42;;;;;;;6.97;2.78;;;6.10;95.70;;;;;;9817701;29;20296;-62
2022/01/20 11:15:33;;;;;;;7.05;2.40;;;6.10;95.60;;;;;;9816751;29;20054;-64
2022/01/20 11:20:27;;;;;;;7.97;2.17;;;6.10;95.50;;;;;;9813218;29;20115;-62
2022/01/20 11:25:21;;;;;;;7.18;3.03;;;6.00;95.50;;;;;;9817713;29;20032;-61
2022/01/20 11:30:18;;;;;;;5.05;2.22;;;6.10;95.40;;;;;;9824273;29;20067;-58
2022/01/20 11:35:10;;;;;;;6.15;2.42;;;6.10;95.30;;;;;;9824001;29;20087;-59
2022/01/20 11:40:17;;;;;;;4.70;3.63;;;6.10;95.20;;;;;;9822635;29;20021;-60
2022/01/20 11:45:26;;;;;;;8.15;3.75;;;6.10;95.20;;;;;;9822462;29;20031;-57
2022/01/20 11:50:18;;;;;;;5.22;2.38;;;6.00;95.10;;;;;;9824161;29;20028;-59
2022/01/20 11:55:12;;;;;;;5.88;2.38;;;6.00;95.10;;;;;;9837130;29;20051;-68
2022/01/20 12:00:23;;;;;;;3.53;2.50;;;6.20;95.00;;;;;;9823817;29;20107;-60
2022/01/20 12:05:28;;;;;;;3.53;2.97;;;6.20;94.90;;;;;;9817157;29;20068;-66
2022/01/20 12:10:26;;;;;;;6.63;3.58;;;6.10;94.90;;;;;;9829185;29;20071;-65
2022/01/20 12:15:23;;;;;;;4.20;2.25;;;6.20;94.90;;;;;;9824167;29;20043;-63
2022/01/20 12:20:14;;;;;;;6.47;2.40;;;6.20;94.70;;;;;;9825192;29;20146;-67
2022/01/20 12:25:05;;;;;;;4.75;2.47;;;6.00;94.70;;;;;;9826924;29;20020;-68
2022/01/20 12:29:55;;;;;;;7.95;3.08;;;5.90;94.60;;;;;;9821825;29;20087;-57
2022/01/20 12:34:59;;;;;;;6.40;2.33;;;5.80;94.50;;;;;;9821769;29;20090;-58
2022/01/20 12:39:50;;;;;;;7.55;2.70;;;5.80;94.50;;;;;;9827112;29;20080;-66
2022/01/20 12:45:01;;;;;;;5.63;2.38;;;5.90;94.30;;;;;;9830823;29;20428;-64
2022/01/20 12:49:57;;;;;;;4.30;2.75;;;5.90;94.30;;;;;;9826244;29;20507;-64
2022/01/20 12:54:49;;;;;;;6.67;2.40;;;5.90;94.30;;;;;;9820947;29;20546;-64
2022/01/20 12:59:42;;;;;;;6.20;2.50;;;5.80;94.20;;;;;;9821445;29;20074;-66
2022/01/20 13:04:36;;;;;;;3.70;1.67;;;5.80;94.20;;;;;;9825106;29;20039;-65
2022/01/20 13:09:51;;;;;;;3.22;1.67;;;5.80;94.20;;;;;;9817126;29;20059;-65
2022/01/20 13:14:46;;;;;;;4.30;1.90;;;5.70;94.10;;;;;;9820580;29;20481;-67
2022/01/20 13:19:46;;;;;;;3.30;1.77;;;5.80;94.10;;;;;;9819993;29;20027;-70
2022/01/20 13:24:37;;;;;;;3.25;1.90;;;5.80;94.00;;;;;;9818141;29;20040;-69
2022/01/20 13:29:42;;;;;;;3.35;1.92;;;5.70;94.20;;;;;;9821623;29;20046;-62
2022/01/20 13:34:32;;;;;;;3.42;2.15;;;5.80;94.20;;;;;;9818562;29;20070;-62
2022/01/20 13:39:38;;;;;;;1.80;1.38;;;6.00;94.10;;;;;;9817947;29;20514;-63
2022/01/20 13:49:55;;;;;;;0.77;0.55;;;4.80;94.60;;;;;;9820747;29;20686;-61
2022/01/20 13:54:58;;;;;;;0.60;0.60;;;4.70;94.60;;;;;;9819418;29;20143;-66
2022/01/20 13:59:48;;;;;;;0.68;0.40;;;4.60;94.50;;;;;;9822187;29;20123;-67
2022/01/20 14:04:39;;;;;;;1.58;1.08;;;4.50;94.50;;;;;;9819399;29;20110;-64
2022/01/20 14:09:30;;;;;;;1.40;0.80;;;4.40;94.20;;;;;;9817278;29;20028;-62
2022/01/20 14:14:20;;;;;;;1.58;0.73;;;4.60;94.00;;;;;;9819224;29;20041;-62
2022/01/20 14:19:12;;;;;;;1.10;0.75;;;4.80;93.60;;;;;;9818550;29;20039;-63
2022/01/20 14:24:03;;;;;;;3.78;1.05;;;4.70;93.60;;;;;;9817135;29;20746;-63
2022/01/20 14:28:54;;;;;;;1.73;0.90;;;4.70;93.40;;;;;;9817814;29;20598;-64
2022/01/20 14:33:44;;;;;;;1.95;0.75;;;4.70;93.50;;;;;;9817907;29;20138;-63
2022/01/20 14:38:35;;;;;;;2.28;1.00;;;4.70;93.50;;;;;;9820505;29;20042;-67
2022/01/20 14:43:26;;;;;;;1.25;0.70;;;4.70;93.50;;;;;;9815188;29;20036;-64
2022/01/20 14:48:17;;;;;;;4.72;1.27;;;4.70;93.50;;;;;;9810987;29;20047;-64
2022/01/20 14:53:08;;;;;;;1.88;0.68;;;4.80;93.40;;;;;;9814917;29;20095;-63
2022/01/20 14:57:58;;;;;;;2.67;1.25;;;4.80;93.40;;;;;;9812125;29;20111;-64
2022/01/20 15:02:49;;;;;;;1.42;1.05;;;4.90;93.30;;;;;;9815657;29;20024;-63
2022/01/20 15:07:40;;;;;;;1.40;0.85;;;4.90;93.30;;;;;;9815771;29;20036;-64
2022/01/20 15:12:32;;;;;;;2.60;1.17;;;4.90;93.30;;;;;;9817553;29;20036;-64
2022/01/20 15:17:23;;;;;;;2.42;0.70;;;4.90;93.20;;;;;;9818353;29;20024;-64
2022/01/20 15:22:14;;;;;;;2.75;1.02;;;4.90;93.10;;;;;;9816728;29;20115;-64
2022/01/20 15:27:05;;;;;;;1.40;0.70;;;5.00;93.10;;;;;;9816677;29;20031;-66
2022/01/20 15:31:55;;;;;;;4.35;0.95;;;5.00;93.00;;;;;;9816604;29;20158;-63
2022/01/20 15:36:47;;;;;;;3.33;1.70;;;5.00;93.00;;;;;;9816096;29;20500;-67
2022/01/20 15:41:38;;;;;;;3.58;1.40;;;5.00;92.90;;;;;;9815739;29;20032;-65
2022/01/20 15:46:29;;;;;;;2.97;1.20;;;5.00;92.90;;;;;;9815459;29;20043;-64
2022/01/20 15:51:20;;;;;;;3.58;0.98;;;5.00;92.90;;;;;;9818572;29;20079;-64
2022/01/20 15:56:10;;;;;;;1.20;0.80;;;5.00;92.80;;;;;;9817116;29;20127;-65
2022/01/20 16:01:01;;;;;;;5.47;1.10;;;4.90;92.70;;;;;;9815656;29;20517;-65
2022/01/20 16:05:52;;;;;;;4.97;0.95;;;4.80;92.60;;;;;;9812445;29;20028;-66
2022/01/20 16:10:44;;;;;;;7.60;2.35;;;4.60;92.60;;;;;;9817419;29;20028;-66
2022/01/20 16:15:36;;;;;;;7.03;2.20;;;4.70;92.70;;;;;;9820098;29;20037;-65
2022/01/20 16:20:27;;;;;;;2.60;1.30;;;4.70;92.60;;;;;;9820600;29;20155;-68
2022/01/20 16:25:18;;;;;;;3.58;1.38;;;4.70;92.60;;;;;;9823672;29;20312;-63
2022/01/20 16:30:09;;;;;;;3.50;1.02;;;4.70;92.60;;;;;;9823922;29;20028;-66
2022/01/20 16:35:00;;;;;;;4.93;1.58;;;4.70;92.50;;;;;;9824401;29;20152;-65
2022/01/20 16:39:51;;;;;;;3.83;1.48;;;4.70;92.50;;;;;;9822992;29;20024;-69
2022/01/20 16:44:42;;;;;;;8.35;1.60;;;4.70;92.50;;;;;;9823819;29;20445;-62
2022/01/20 16:49:34;;;;;;;6.10;1.85;;;4.70;92.40;;;;;;9823148;29;20024;-63
2022/01/20 16:54:25;;;;;;;2.53;1.52;;;4.60;92.40;;;;;;9821295;29;20101;-65
2022/01/20 16:59:15;;;;;;;2.15;1.75;;;4.60;92.50;;;;;;9825545;29;20229;-64
2022/01/20 17:04:06;;;;;;;2.63;2.08;;;4.60;92.50;;;;;;9823002;29;20021;-66
2022/01/20 17:08:57;;;;;;;3.22;1.38;;;4.50;92.50;;;;;;9822012;29;20036;-64
2022/01/20 17:13:47;;;;;;;4.45;1.85;;;4.60;92.60;;;;;;9819364;29;20198;-74
2022/01/20 17:18:38;;;;;;;4.57;2.17;;;4.70;92.50;;;;;;9836252;29;20046;-65
2022/01/20 17:23:30;;;;;;;6.80;1.88;;;4.50;92.50;;;;;;9818533;29;20028;-69
2022/01/20 17:28:21;;;;;;;7.13;2.13;;;4.50;92.70;;;;;;9818671;29;20430;-68
2022/01/20 17:33:12;;;;;;;4.10;1.77;;;4.50;92.70;;;;;;9818760;29;20051;-68
2022/01/20 17:38:04;;;;;;;3.53;1.52;;;4.50;92.60;;;;;;9818010;29;20107;-65
2022/01/20 17:42:55;;;;;;;4.50;1.30;;;4.60;92.30;;;;;;9817370;29;20122;-68
2022/01/20 17:47:49;;;;;;;2.15;1.13;;;4.60;92.30;;;;;;9820056;29;20143;-67
2022/01/20 17:52:40;;;;;;;5.35;1.70;;;4.60;92.30;;;;;;9819672;29;20087;-64
2022/01/20 17:57:31;;;;;;;4.57;1.63;;;4.60;92.30;;;;;;9817171;29;20135;-69
2022/01/20 18:02:22;;;;;;;2.97;1.20;;;4.60;92.30;;;;;;9817729;29;20107;-68
2022/01/20 18:07:12;;;;;;;3.70;1.10;;;4.60;92.20;;;;;;9816964;29;20358;-67
2022/01/20 18:12:05;;;;;;;4.32;1.73;;;4.60;91.80;;;;;;9812853;29;20076;-66
2022/01/20 18:16:56;;;;;;;4.28;1.77;;;4.50;92.00;;;;;;9819014;29;20080;-69
2022/01/20 18:21:46;;;;;;;7.38;2.38;;;4.50;91.90;;;;;;9810082;29;20385;-73
2022/01/20 18:26:37;;;;;;;2.47;1.52;;;4.50;91.80;;;;;;9820641;29;20034;-71
2022/01/20 18:31:27;;;;;;;3.35;1.52;;;4.50;91.70;;;;;;9818618;29;20094;-71
2022/01/20 18:36:19;;;;;;;2.88;1.75;;;4.50;91.50;;;;;;9821670;29;20028;-72
2022/01/20 18:41:09;;;;;;;2.50;1.52;;;4.50;91.60;;;;;;9820351;29;20035;-71
2022/01/20 18:46:00;;;;;;;2.20;1.33;;;4.50;91.50;;;;;;9815851;29;20380;-71
2022/01/20 18:50:51;;;;;;;2.53;1.45;;;4.50;91.40;;;;;;9824393;29;20028;-71
2022/01/20 18:55:48;;;;;;;3.15;1.67;;;4.50;91.40;;;;;;9818787;29;20048;-70
2022/01/20 19:00:42;;;;;;;3.25;1.67;;;4.50;91.30;;;;;;9818194;29;20028;-72
2022/01/20 19:05:34;;;;;;;2.47;1.75;;;4.50;91.30;;;;;;9822402;29;20446;-71
2022/01/20 19:10:24;;;;;;;4.53;1.10;;;4.50;91.20;;;;;;9810842;29;20514;-71
2022/01/20 19:15:18;;;;;;;6.68;2.30;;;4.50;91.20;;;;;;9816612;29;20040;-72
2022/01/20 19:20:11;;;;;;;4.07;2.38;;;4.50;91.20;;;;;;9818661;29;20118;-71
2022/01/20 19:25:09;;;;;;;3.15;1.98;;;4.60;91.20;;;;;;9817561;29;20016;-72
2022/01/20 19:30:01;;;;;;;4.53;1.42;;;4.50;91.10;;;;;;9821223;29;20044;-72
2022/01/20 19:34:53;;;;;;;7.53;1.90;;;4.40;91.10;;;;;;9817785;29;20044;-71
2022/01/20 19:39:47;;;;;;;5.80;1.92;;;4.40;91.20;;;;;;9815893;29;20517;-67
2022/01/20 19:44:38;;;;;;;4.43;2.30;;;4.30;91.20;;;;;;9811900;29;20052;-70
2022/01/20 19:49:29;;;;;;;2.35;1.20;;;4.40;91.10;;;;;;9808919;29;20471;-69
2022/01/20 19:54:21;;;;;;;2.17;1.45;;;4.40;91.10;;;;;;9806561;29;20067;-66
2022/01/20 19:59:17;;;;;;;3.38;1.42;;;4.30;91.10;;;;;;9819756;29;20403;-63
2022/01/20 20:04:07;;;;;;;4.97;2.77;;;4.30;91.10;;;;;;9813349;29;20127;-64
2022/01/20 20:08:58;;;;;;;6.45;1.38;;;4.30;91.10;;;;;;9824615;29;20455;-64
2022/01/20 20:13:49;;;;;;;7.78;3.67;;;4.30;91.10;;;;;;9820863;29;20040;-63
2022/01/20 20:18:40;;;;;;;3.08;1.35;;;4.30;91.00;;;;;;9816524;29;20250;-64
2022/01/20 20:23:30;;;;;;;4.60;1.55;;;4.20;91.00;;;;;;9822020;29;20036;-67
2022/01/20 20:28:21;;;;;;;3.45;1.50;;;4.20;91.00;;;;;;9832326;29;20023;-65
2022/01/20 20:33:12;;;;;;;4.93;1.48;;;4.10;90.90;;;;;;9824249;29;20499;-65
2022/01/20 20:38:03;;;;;;;2.05;1.02;;;4.10;90.90;;;;;;9826411;29;20112;-63
2022/01/20 20:42:54;;;;;;;4.82;2.42;;;4.00;90.80;;;;;;9821999;29;20134;-64
2022/01/20 20:47:45;;;;;;;7.80;2.28;;;3.90;90.90;;;;;;9818888;29;20028;-63
2022/01/20 20:52:35;;;;;;;6.45;1.83;;;3.90;90.90;;;;;;9825543;29;20432;-65
2022/01/20 20:59:57;;;;;;;5.55;1.90;;;3.90;90.90;;;;;;10217029;27;20427;-63
2022/01/20 21:04:48;;;;;;;3.03;1.40;;;4.00;90.80;;;;;;10205606;28;20275;-62
2022/01/20 21:09:41;;;;;;;2.08;1.38;;;4.00;90.70;;;;;;10201094;28;20032;-64
2022/01/20 21:14:31;;;;;;;5.70;1.50;;;3.90;90.80;;;;;;10199815;28;20027;-62
2022/01/20 21:19:22;;;;;;;3.90;1.48;;;4.10;90.80;;;;;;10197336;28;20104;-62
2022/01/20 21:24:13;;;;;;;4.88;1.70;;;4.00;90.70;;;;;;10199126;28;20406;-61
2022/01/20 21:29:04;;;;;;;5.57;1.70;;;4.00;90.80;;;;;;10199196;28;20024;-63
2022/01/20 21:33:55;;;;;;;5.22;2.20;;;4.10;90.70;;;;;;10203807;28;20031;-63
2022/01/20 21:38:49;;;;;;;7.30;1.50;;;4.10;90.70;;;;;;10204051;28;20043;-63
2022/01/20 21:43:41;;;;;;;3.78;1.35;;;3.90;90.70;;;;;;10202497;28;20424;-63
2022/01/20 21:48:33;;;;;;;5.30;1.65;;;4.00;90.70;;;;;;10202190;28;20476;-63
2022/01/20 21:53:24;;;;;;;2.42;1.00;;;4.00;90.70;;;;;;10206539;28;20026;-64
2022/01/20 21:58:16;;;;;;;5.10;1.67;;;3.90;90.70;;;;;;10173143;28;20550;-66
2022/01/20 22:03:06;;;;;;;5.93;1.73;;;3.90;90.70;;;;;;10167120;28;20114;-63
2022/01/20 22:07:58;;;;;;;7.50;3.47;;;3.90;90.70;;;;;;10153012;28;20119;-63
2022/01/20 22:12:48;;;;;;;4.93;3.03;;;3.80;90.70;;;;;;10134495;28;20016;-63
2022/01/20 22:17:39;;;;;;;4.78;2.75;;;3.60;90.60;;;;;;10131608;28;20505;-65
2022/01/20 22:22:30;;;;;;;3.42;1.42;;;3.60;90.70;;;;;;10129972;28;20111;-63
2022/01/20 22:27:20;;;;;;;5.95;1.58;;;3.50;90.80;;;;;;10120062;28;20040;-66
2022/01/20 22:32:11;;;;;;;6.15;1.35;;;3.40;90.80;;;;;;10113361;28;20433;-63
2022/01/20 22:37:02;;;;;;;3.88;1.65;;;3.40;90.90;;;;;;10127222;28;20036;-63
2022/01/20 22:41:53;;;;;;;4.07;1.58;;;3.40;90.90;;;;;;10131185;28;20344;-62
2022/01/20 22:46:44;;;;;;;2.25;1.25;;;3.40;91.00;;;;;;10126302;28;20052;-63
2022/01/20 22:51:34;;;;;;;2.22;1.30;;;3.30;91.00;;;;;;10133407;28;20028;-64
2022/01/20 22:56:25;;;;;;;4.32;2.00;;;3.30;91.10;;;;;;10129303;28;20060;-66
2022/01/20 23:01:16;;;;;;;1.40;1.10;;;3.30;91.10;;;;;;10132742;28;20136;-66
2022/01/20 23:06:07;;;;;;;4.38;1.45;;;3.30;91.20;;;;;;10127868;28;20119;-66
2022/01/20 23:10:58;;;;;;;4.35;1.63;;;3.30;91.20;;;;;;10126960;28;20028;-66
2022/01/20 23:15:59;;;;;;;4.60;1.63;;;3.20;91.30;;;;;;10126699;28;20640;-67
2022/01/20 23:20:52;;;;;;;4.53;2.15;;;3.20;91.30;;;;;;10126478;28;20433;-66
2022/01/20 23:25:42;;;;;;;1.90;1.33;;;3.20;91.60;;;;;;10117239;28;20111;-67
2022/01/20 23:30:35;;;;;;;6.13;2.05;;;3.20;91.40;;;;;;10103159;28;20127;-67
2022/01/20 23:35:26;;;;;;;8.15;1.77;;;3.30;91.50;;;;;;10124753;28;20090;-68
2022/01/20 23:40:16;;;;;;;4.40;1.60;;;3.40;91.50;;;;;;10115225;28;20033;-68
2022/01/20 23:48:07;;;;;;;5.55;1.83;;;3.50;91.40;;;;;;10130113;28;20021;-68
2022/01/20 23:50:18;;;;;;;3.15;1.58;;;3.40;91.40;;;;;;10102171;28;20064;-67
2022/01/20 23:55:10;;;;;;;6.05;1.75;;;3.40;91.50;;;;;;10125918;28;20028;-68
